sensor_id;sensor_type;location;lat;lon;timestamp;temperature;humidity
30308;DHT22;17114;52.314;8.910;2023-04-21T00:00:07;8.20;99.90
30308;DHT22;17114;52.314;8.910;2023-04-21T00:02:36;8.20;99.90
30308;DHT22;17114;52.314;8.910;2023-04-21T00:05:06;8.20;99.90
30308;DHT22;17114;52.314;8.910;2023-04-21T00:07:39;8.20;99.90
30308;DHT22;17114;52.314;8.910;2023-04-21T00:10:10;8.10;99.90
30308;DHT22;17114;52.314;8.910;2023-04-21T00:12:37;8.10;99.90
30308;DHT22;17114;52.314;8.910;2023-04-21T00:15:04;8.00;99.90
30308;DHT22;17114;52.314;8.910;2023-04-21T00:17:32;8.10;99.90
30308;DHT22;17114;52.314;8.910;2023-04-21T00:20:02;8.10;99.90
30308;DHT22;17114;52.314;8.910;2023-04-21T00:22:30;8.10;99.90
30308;DHT22;17114;52.314;8.910;2023-04-21T00:24:57;8.10;99.90
30308;DHT22;17114;52.314;8.910;2023-04-21T00:27:24;8.10;99.90
30308;DHT22;17114;52.314;8.910;2023-04-21T00:29:51;8.10;99.90
30308;DHT22;17114;52.314;8.910;2023-04-21T00:32:20;8.10;99.90
30308;DHT22;17114;52.314;8.910;2023-04-21T00:34:50;8.00;99.90
30308;DHT22;17114;52.314;8.910;2023-04-21T00:37:17;8.00;99.90
30308;DHT22;17114;52.314;8.910;2023-04-21T00:39:44;8.00;99.90
30308;DHT22;17114;52.314;8.910;2023-04-21T00:42:14;7.90;99.90
30308;DHT22;17114;52.314;8.910;2023-04-21T00:44:41;7.90;99.90
30308;DHT22;17114;52.314;8.910;2023-04-21T00:47:08;7.90;99.90
30308;DHT22;17114;52.314;8.910;2023-04-21T00:49:36;7.80;99.90
30308;DHT22;17114;52.314;8.910;2023-04-21T00:52:06;8.00;99.90
30308;DHT22;17114;52.314;8.910;2023-04-21T00:54:35;8.00;99.90
30308;DHT22;17114;52.314;8.910;2023-04-21T00:57:02;8.00;99.90
30308;DHT22;17114;52.314;8.910;2023-04-21T00:59:30;8.00;99.90
30308;DHT22;17114;52.314;8.910;2023-04-21T01:01:57;8.10;99.90
30308;DHT22;17114;52.314;8.910;2023-04-21T01:04:24;8.10;99.90
30308;DHT22;17114;52.314;8.910;2023-04-21T01:06:51;8.10;99.90
30308;DHT22;17114;52.314;8.910;2023-04-21T01:09:19;8.20;99.90
30308;DHT22;17114;52.314;8.910;2023-04-21T01:14:31;8.20;99.90
30308;DHT22;17114;52.314;8.910;2023-04-21T01:16:58;8.20;99.90
30308;DHT22;17114;52.314;8.910;2023-04-21T01:19:32;8.20;99.90
30308;DHT22;17114;52.314;8.910;2023-04-21T01:22:06;8.20;99.90
30308;DHT22;17114;52.314;8.910;2023-04-21T01:24:42;8.30;99.90
30308;DHT22;17114;52.314;8.910;2023-04-21T01:27:19;8.20;99.90
30308;DHT22;17114;52.314;8.910;2023-04-21T01:29:51;8.30;99.90
30308;DHT22;17114;52.314;8.910;2023-04-21T01:32:23;8.20;99.90
30308;DHT22;17114;52.314;8.910;2023-04-21T01:34:54;8.20;99.90
30308;DHT22;17114;52.314;8.910;2023-04-21T01:37:26;8.20;99.90
30308;DHT22;17114;52.314;8.910;2023-04-21T01:39:56;8.20;99.90
30308;DHT22;17114;52.314;8.910;2023-04-21T01:42:25;8.20;99.90
30308;DHT22;17114;52.314;8.910;2023-04-21T01:44:52;8.20;99.90
30308;DHT22;17114;52.314;8.910;2023-04-21T01:47:20;8.10;99.90
30308;DHT22;17114;52.314;8.910;2023-04-21T01:49:47;8.10;99.90
30308;DHT22;17114;52.314;8.910;2023-04-21T01:52:14;8.20;99.90
30308;DHT22;17114;52.314;8.910;2023-04-21T01:54:41;8.10;99.90
30308;DHT22;17114;52.314;8.910;2023-04-21T01:57:09;8.10;99.90
30308;DHT22;17114;52.314;8.910;2023-04-21T01:59:36;8.10;99.90
30308;DHT22;17114;52.314;8.910;2023-04-21T02:02:03;8.10;99.90
30308;DHT22;17114;52.314;8.910;2023-04-21T02:04:33;7.90;99.90
30308;DHT22;17114;52.314;8.910;2023-04-21T02:07:01;7.90;99.90
30308;DHT22;17114;52.314;8.910;2023-04-21T02:09:28;7.90;99.90
30308;DHT22;17114;52.314;8.910;2023-04-21T02:12:00;7.90;99.90
30308;DHT22;17114;52.314;8.910;2023-04-21T02:14:28;8.00;99.90
30308;DHT22;17114;52.314;8.910;2023-04-21T02:16:54;7.90;99.90
30308;DHT22;17114;52.314;8.910;2023-04-21T02:19:24;7.90;99.90
30308;DHT22;17114;52.314;8.910;2023-04-21T02:21:51;7.80;99.90
30308;DHT22;17114;52.314;8.910;2023-04-21T02:24:21;7.90;99.90
30308;DHT22;17114;52.314;8.910;2023-04-21T02:26:48;8.00;99.90
30308;DHT22;17114;52.314;8.910;2023-04-21T02:29:15;8.00;99.90
30308;DHT22;17114;52.314;8.910;2023-04-21T02:31:43;8.00;99.90
30308;DHT22;17114;52.314;8.910;2023-04-21T02:34:28;7.90;99.90
30308;DHT22;17114;52.314;8.910;2023-04-21T02:36:55;8.00;99.90
30308;DHT22;17114;52.314;8.910;2023-04-21T02:39:22;8.00;99.90
30308;DHT22;17114;52.314;8.910;2023-04-21T02:41:49;8.00;99.90
30308;DHT22;17114;52.314;8.910;2023-04-21T02:44:16;8.00;99.90
30308;DHT22;17114;52.314;8.910;2023-04-21T02:46:43;7.90;99.90
30308;DHT22;17114;52.314;8.910;2023-04-21T02:49:12;8.00;99.90
30308;DHT22;17114;52.314;8.910;2023-04-21T02:51:39;8.00;99.90
30308;DHT22;17114;52.314;8.910;2023-04-21T02:54:07;7.90;99.90
30308;DHT22;17114;52.314;8.910;2023-04-21T02:56:34;8.00;99.90
30308;DHT22;17114;52.314;8.910;2023-04-21T02:59:04;8.20;99.90
30308;DHT22;17114;52.314;8.910;2023-04-21T03:01:34;8.20;99.90
30308;DHT22;17114;52.314;8.910;2023-04-21T03:04:04;8.10;99.90
30308;DHT22;17114;52.314;8.910;2023-04-21T03:06:35;8.10;99.90
30308;DHT22;17114;52.314;8.910;2023-04-21T03:09:05;8.10;99.90
30308;DHT22;17114;52.314;8.910;2023-04-21T03:11:39;8.10;99.90
30308;DHT22;17114;52.314;8.910;2023-04-21T03:14:15;8.10;99.90
30308;DHT22;17114;52.314;8.910;2023-04-21T03:16:48;8.10;99.90
30308;DHT22;17114;52.314;8.910;2023-04-21T03:19:16;8.10;99.90
30308;DHT22;17114;52.314;8.910;2023-04-21T03:21:43;8.20;99.90
30308;DHT22;17114;52.314;8.910;2023-04-21T03:24:10;8.20;99.90
30308;DHT22;17114;52.314;8.910;2023-04-21T03:26:38;8.30;99.90
30308;DHT22;17114;52.314;8.910;2023-04-21T03:29:09;8.20;99.90
30308;DHT22;17114;52.314;8.910;2023-04-21T03:31:36;8.20;99.90
30308;DHT22;17114;52.314;8.910;2023-04-21T03:34:03;8.20;99.90
30308;DHT22;17114;52.314;8.910;2023-04-21T03:36:30;8.20;99.90
30308;DHT22;17114;52.314;8.910;2023-04-21T03:38:57;8.20;99.90
30308;DHT22;17114;52.314;8.910;2023-04-21T03:41:44;8.20;99.90
30308;DHT22;17114;52.314;8.910;2023-04-21T03:44:14;8.20;99.90
30308;DHT22;17114;52.314;8.910;2023-04-21T03:46:44;8.00;99.90
30308;DHT22;17114;52.314;8.910;2023-04-21T03:49:14;8.20;99.90
30308;DHT22;17114;52.314;8.910;2023-04-21T03:51:46;8.10;99.90
30308;DHT22;17114;52.314;8.910;2023-04-21T03:54:22;8.10;99.90
30308;DHT22;17114;52.314;8.910;2023-04-21T03:56:49;8.10;99.90
30308;DHT22;17114;52.314;8.910;2023-04-21T03:59:16;8.20;99.90
30308;DHT22;17114;52.314;8.910;2023-04-21T04:02:01;8.10;99.90
30308;DHT22;17114;52.314;8.910;2023-04-21T04:04:28;8.10;99.90
30308;DHT22;17114;52.314;8.910;2023-04-21T04:06:56;8.10;99.90
30308;DHT22;17114;52.314;8.910;2023-04-21T04:09:23;8.10;99.90
30308;DHT22;17114;52.314;8.910;2023-04-21T04:11:50;8.10;99.90
30308;DHT22;17114;52.314;8.910;2023-04-21T04:14:17;8.10;99.90
30308;DHT22;17114;52.314;8.910;2023-04-21T04:16:44;8.10;99.90
30308;DHT22;17114;52.314;8.910;2023-04-21T04:19:11;8.10;99.90
30308;DHT22;17114;52.314;8.910;2023-04-21T04:21:39;8.00;99.90
30308;DHT22;17114;52.314;8.910;2023-04-21T04:24:06;8.10;99.90
30308;DHT22;17114;52.314;8.910;2023-04-21T04:26:34;8.20;99.90
30308;DHT22;17114;52.314;8.910;2023-04-21T04:29:04;8.20;99.90
30308;DHT22;17114;52.314;8.910;2023-04-21T04:31:31;8.10;99.90
30308;DHT22;17114;52.314;8.910;2023-04-21T04:33:59;8.20;99.90
30308;DHT22;17114;52.314;8.910;2023-04-21T04:36:30;8.20;99.90
30308;DHT22;17114;52.314;8.910;2023-04-21T04:38:57;8.20;99.90
30308;DHT22;17114;52.314;8.910;2023-04-21T04:41:25;8.20;99.90
30308;DHT22;17114;52.314;8.910;2023-04-21T04:43:52;8.20;99.90
30308;DHT22;17114;52.314;8.910;2023-04-21T04:46:19;8.20;99.90
30308;DHT22;17114;52.314;8.910;2023-04-21T04:48:46;8.20;99.90
30308;DHT22;17114;52.314;8.910;2023-04-21T04:51:13;8.20;99.90
30308;DHT22;17114;52.314;8.910;2023-04-21T04:53:46;8.30;99.90
30308;DHT22;17114;52.314;8.910;2023-04-21T04:56:17;8.40;99.90
30308;DHT22;17114;52.314;8.910;2023-04-21T04:58:44;8.40;99.90
30308;DHT22;17114;52.314;8.910;2023-04-21T05:01:15;8.40;99.90
30308;DHT22;17114;52.314;8.910;2023-04-21T05:03:44;8.60;99.90
30308;DHT22;17114;52.314;8.910;2023-04-21T05:06:11;8.60;99.90
30308;DHT22;17114;52.314;8.910;2023-04-21T05:08:40;8.60;99.90
30308;DHT22;17114;52.314;8.910;2023-04-21T05:11:07;8.80;99.90
30308;DHT22;17114;52.314;8.910;2023-04-21T05:13:34;9.00;99.90
30308;DHT22;17114;52.314;8.910;2023-04-21T05:16:06;9.10;99.90
30308;DHT22;17114;52.314;8.910;2023-04-21T05:18:33;9.20;99.90
30308;DHT22;17114;52.314;8.910;2023-04-21T05:21:02;9.30;99.90
30308;DHT22;17114;52.314;8.910;2023-04-21T05:23:29;9.50;99.90
30308;DHT22;17114;52.314;8.910;2023-04-21T05:25:56;9.60;99.90
30308;DHT22;17114;52.314;8.910;2023-04-21T05:28:23;9.80;99.90
30308;DHT22;17114;52.314;8.910;2023-04-21T05:30:50;10.00;99.90
30308;DHT22;17114;52.314;8.910;2023-04-21T05:33:18;10.30;99.90
30308;DHT22;17114;52.314;8.910;2023-04-21T05:35:48;10.60;99.90
30308;DHT22;17114;52.314;8.910;2023-04-21T05:38:15;10.80;99.90
30308;DHT22;17114;52.314;8.910;2023-04-21T05:40:42;11.00;99.90
30308;DHT22;17114;52.314;8.910;2023-04-21T05:43:09;11.10;99.90
30308;DHT22;17114;52.314;8.910;2023-04-21T05:45:39;11.30;99.90
30308;DHT22;17114;52.314;8.910;2023-04-21T05:48:06;11.40;99.90
30308;DHT22;17114;52.314;8.910;2023-04-21T05:50:34;11.60;99.90
30308;DHT22;17114;52.314;8.910;2023-04-21T05:53:01;11.80;99.90
30308;DHT22;17114;52.314;8.910;2023-04-21T05:55:28;12.00;99.90
30308;DHT22;17114;52.314;8.910;2023-04-21T05:57:55;12.10;99.90
30308;DHT22;17114;52.314;8.910;2023-04-21T06:00:22;12.30;99.90
30308;DHT22;17114;52.314;8.910;2023-04-21T06:02:49;12.40;99.90
30308;DHT22;17114;52.314;8.910;2023-04-21T06:05:17;12.40;99.90
30308;DHT22;17114;52.314;8.910;2023-04-21T06:07:44;12.50;99.90
30308;DHT22;17114;52.314;8.910;2023-04-21T06:10:12;12.50;99.90
30308;DHT22;17114;52.314;8.910;2023-04-21T06:12:39;12.50;99.90
30308;DHT22;17114;52.314;8.910;2023-04-21T06:15:07;12.40;99.90
30308;DHT22;17114;52.314;8.910;2023-04-21T06:17:34;12.40;99.90
30308;DHT22;17114;52.314;8.910;2023-04-21T06:20:01;12.70;99.90
30308;DHT22;17114;52.314;8.910;2023-04-21T06:22:31;13.20;99.90
30308;DHT22;17114;52.314;8.910;2023-04-21T06:24:59;13.40;99.90
30308;DHT22;17114;52.314;8.910;2023-04-21T06:27:26;13.50;99.90
30308;DHT22;17114;52.314;8.910;2023-04-21T06:29:54;13.50;99.90
30308;DHT22;17114;52.314;8.910;2023-04-21T06:32:22;13.50;99.90
30308;DHT22;17114;52.314;8.910;2023-04-21T06:34:49;13.80;99.90
30308;DHT22;17114;52.314;8.910;2023-04-21T06:37:16;13.90;99.90
30308;DHT22;17114;52.314;8.910;2023-04-21T06:39:44;13.90;99.90
30308;DHT22;17114;52.314;8.910;2023-04-21T06:42:11;14.40;99.90
30308;DHT22;17114;52.314;8.910;2023-04-21T06:44:38;14.80;99.90
30308;DHT22;17114;52.314;8.910;2023-04-21T06:47:05;15.00;99.90
30308;DHT22;17114;52.314;8.910;2023-04-21T06:49:32;15.20;99.90
30308;DHT22;17114;52.314;8.910;2023-04-21T06:51:59;15.40;99.90
30308;DHT22;17114;52.314;8.910;2023-04-21T06:54:26;15.50;99.90
30308;DHT22;17114;52.314;8.910;2023-04-21T06:56:53;15.80;99.90
30308;DHT22;17114;52.314;8.910;2023-04-21T06:59:20;16.00;99.90
30308;DHT22;17114;52.314;8.910;2023-04-21T07:01:48;15.90;99.90
30308;DHT22;17114;52.314;8.910;2023-04-21T07:04:18;16.20;99.90
30308;DHT22;17114;52.314;8.910;2023-04-21T07:06:46;16.30;99.90
30308;DHT22;17114;52.314;8.910;2023-04-21T07:09:14;16.40;99.90
30308;DHT22;17114;52.314;8.910;2023-04-21T07:11:41;16.50;99.90
30308;DHT22;17114;52.314;8.910;2023-04-21T07:14:08;16.80;99.90
30308;DHT22;17114;52.314;8.910;2023-04-21T07:16:35;16.80;99.90
30308;DHT22;17114;52.314;8.910;2023-04-21T07:19:02;16.90;99.90
30308;DHT22;17114;52.314;8.910;2023-04-21T07:21:30;17.40;99.90
30308;DHT22;17114;52.314;8.910;2023-04-21T07:23:58;17.80;99.90
30308;DHT22;17114;52.314;8.910;2023-04-21T07:26:25;17.90;99.90
30308;DHT22;17114;52.314;8.910;2023-04-21T07:28:52;18.00;99.90
30308;DHT22;17114;52.314;8.910;2023-04-21T07:31:21;17.90;99.90
30308;DHT22;17114;52.314;8.910;2023-04-21T07:33:48;18.20;99.90
30308;DHT22;17114;52.314;8.910;2023-04-21T07:36:15;18.40;99.90
30308;DHT22;17114;52.314;8.910;2023-04-21T07:38:42;18.50;99.90
30308;DHT22;17114;52.314;8.910;2023-04-21T07:41:10;18.80;99.90
30308;DHT22;17114;52.314;8.910;2023-04-21T07:43:39;18.90;99.90
30308;DHT22;17114;52.314;8.910;2023-04-21T07:46:06;18.60;99.90
30308;DHT22;17114;52.314;8.910;2023-04-21T07:48:33;19.00;99.90
30308;DHT22;17114;52.314;8.910;2023-04-21T07:51:00;19.50;99.90
30308;DHT22;17114;52.314;8.910;2023-04-21T07:53:29;19.80;99.90
30308;DHT22;17114;52.314;8.910;2023-04-21T07:55:57;19.90;99.90
30308;DHT22;17114;52.314;8.910;2023-04-21T07:58:24;19.80;99.90
30308;DHT22;17114;52.314;8.910;2023-04-21T08:00:51;20.10;99.90
30308;DHT22;17114;52.314;8.910;2023-04-21T08:03:18;20.20;99.90
30308;DHT22;17114;52.314;8.910;2023-04-21T08:05:50;20.30;99.90
30308;DHT22;17114;52.314;8.910;2023-04-21T08:08:17;20.30;99.90
30308;DHT22;17114;52.314;8.910;2023-04-21T08:10:46;19.90;99.90
30308;DHT22;17114;52.314;8.910;2023-04-21T08:13:13;19.80;99.90
30308;DHT22;17114;52.314;8.910;2023-04-21T08:15:40;19.30;99.90
30308;DHT22;17114;52.314;8.910;2023-04-21T08:18:08;19.50;99.90
30308;DHT22;17114;52.314;8.910;2023-04-21T08:20:35;19.40;99.90
30308;DHT22;17114;52.314;8.910;2023-04-21T08:23:02;19.30;99.90
30308;DHT22;17114;52.314;8.910;2023-04-21T08:25:30;19.50;99.90
30308;DHT22;17114;52.314;8.910;2023-04-21T08:27:57;19.80;99.90
30308;DHT22;17114;52.314;8.910;2023-04-21T08:30:27;19.80;99.90
30308;DHT22;17114;52.314;8.910;2023-04-21T08:32:54;19.90;99.90
30308;DHT22;17114;52.314;8.910;2023-04-21T08:35:21;19.80;99.90
30308;DHT22;17114;52.314;8.910;2023-04-21T08:37:49;19.70;99.90
30308;DHT22;17114;52.314;8.910;2023-04-21T08:40:18;19.50;99.90
30308;DHT22;17114;52.314;8.910;2023-04-21T08:42:47;19.50;99.90
30308;DHT22;17114;52.314;8.910;2023-04-21T08:45:14;19.70;99.90
30308;DHT22;17114;52.314;8.910;2023-04-21T08:47:41;19.90;99.90
30308;DHT22;17114;52.314;8.910;2023-04-21T08:50:12;19.90;99.90
30308;DHT22;17114;52.314;8.910;2023-04-21T08:52:40;20.10;99.90
30308;DHT22;17114;52.314;8.910;2023-04-21T08:55:09;20.40;99.90
30308;DHT22;17114;52.314;8.910;2023-04-21T08:57:36;20.70;99.90
30308;DHT22;17114;52.314;8.910;2023-04-21T09:00:04;21.00;99.90
30308;DHT22;17114;52.314;8.910;2023-04-21T09:02:55;21.60;99.90
30308;DHT22;17114;52.314;8.910;2023-04-21T09:05:31;21.50;99.90
30308;DHT22;17114;52.314;8.910;2023-04-21T09:08:10;21.20;99.90
30308;DHT22;17114;52.314;8.910;2023-04-21T09:13:12;20.50;99.90
30308;DHT22;17114;52.314;8.910;2023-04-21T09:15:47;20.50;99.90
30308;DHT22;17114;52.314;8.910;2023-04-21T09:18:23;20.90;99.90
30308;DHT22;17114;52.314;8.910;2023-04-21T09:21:04;21.30;99.90
30308;DHT22;17114;52.314;8.910;2023-04-21T09:23:51;21.50;99.90
30308;DHT22;17114;52.314;8.910;2023-04-21T09:26:20;21.80;99.90
30308;DHT22;17114;52.314;8.910;2023-04-21T09:28:50;21.80;99.90
30308;DHT22;17114;52.314;8.910;2023-04-21T09:31:22;22.00;99.90
30308;DHT22;17114;52.314;8.910;2023-04-21T09:33:58;21.90;99.90
30308;DHT22;17114;52.314;8.910;2023-04-21T09:36:28;22.20;99.90
30308;DHT22;17114;52.314;8.910;2023-04-21T09:39:01;22.20;99.90
30308;DHT22;17114;52.314;8.910;2023-04-21T09:41:32;22.00;99.90
30308;DHT22;17114;52.314;8.910;2023-04-21T09:43:59;21.90;99.90
30308;DHT22;17114;52.314;8.910;2023-04-21T09:46:36;22.10;99.90
30308;DHT22;17114;52.314;8.910;2023-04-21T09:49:04;21.80;99.90
30308;DHT22;17114;52.314;8.910;2023-04-21T09:51:35;21.50;99.90
30308;DHT22;17114;52.314;8.910;2023-04-21T09:54:29;21.20;99.90
30308;DHT22;17114;52.314;8.910;2023-04-21T09:56:58;20.70;99.90
30308;DHT22;17114;52.314;8.910;2023-04-21T09:59:39;21.00;99.90
30308;DHT22;17114;52.314;8.910;2023-04-21T10:02:07;21.30;99.90
30308;DHT22;17114;52.314;8.910;2023-04-21T10:04:36;21.30;99.90
30308;DHT22;17114;52.314;8.910;2023-04-21T10:07:05;21.40;99.90
30308;DHT22;17114;52.314;8.910;2023-04-21T10:09:40;21.10;99.90
30308;DHT22;17114;52.314;8.910;2023-04-21T10:12:09;21.10;99.90
30308;DHT22;17114;52.314;8.910;2023-04-21T10:14:37;21.10;99.90
30308;DHT22;17114;52.314;8.910;2023-04-21T10:17:06;21.10;99.90
30308;DHT22;17114;52.314;8.910;2023-04-21T10:19:35;21.20;99.90
30308;DHT22;17114;52.314;8.910;2023-04-21T10:22:06;21.20;99.90
30308;DHT22;17114;52.314;8.910;2023-04-21T10:24:41;21.40;99.90
30308;DHT22;17114;52.314;8.910;2023-04-21T10:27:12;21.30;99.90
30308;DHT22;17114;52.314;8.910;2023-04-21T10:29:57;21.50;99.90
30308;DHT22;17114;52.314;8.910;2023-04-21T10:32:41;22.00;99.90
30308;DHT22;17114;52.314;8.910;2023-04-21T10:35:14;21.90;99.90
30308;DHT22;17114;52.314;8.910;2023-04-21T10:37:42;22.00;99.90
30308;DHT22;17114;52.314;8.910;2023-04-21T10:40:32;21.90;99.90
30308;DHT22;17114;52.314;8.910;2023-04-21T10:43:44;22.00;99.90
30308;DHT22;17114;52.314;8.910;2023-04-21T10:46:35;21.90;99.90
30308;DHT22;17114;52.314;8.910;2023-04-21T10:49:11;21.70;99.90
30308;DHT22;17114;52.314;8.910;2023-04-21T10:57:16;21.30;99.90
30308;DHT22;17114;52.314;8.910;2023-04-21T10:59:44;21.10;99.90
30308;DHT22;17114;52.314;8.910;2023-04-21T11:02:13;21.00;99.90
30308;DHT22;17114;52.314;8.910;2023-04-21T11:04:41;21.00;99.90
30308;DHT22;17114;52.314;8.910;2023-04-21T11:07:16;21.40;99.90
30308;DHT22;17114;52.314;8.910;2023-04-21T11:09:45;21.50;99.90
30308;DHT22;17114;52.314;8.910;2023-04-21T11:12:15;21.60;99.90
30308;DHT22;17114;52.314;8.910;2023-04-21T11:14:45;21.60;99.90
30308;DHT22;17114;52.314;8.910;2023-04-21T11:17:18;21.60;99.90
30308;DHT22;17114;52.314;8.910;2023-04-21T11:19:51;21.50;99.90
30308;DHT22;17114;52.314;8.910;2023-04-21T11:22:21;21.50;99.90
30308;DHT22;17114;52.314;8.910;2023-04-21T11:24:54;21.40;98.60
30308;DHT22;17114;52.314;8.910;2023-04-21T11:27:21;21.40;99.50
30308;DHT22;17114;52.314;8.910;2023-04-21T11:29:49;21.60;97.40
30308;DHT22;17114;52.314;8.910;2023-04-21T11:32:17;21.60;97.80
30308;DHT22;17114;52.314;8.910;2023-04-21T11:34:44;21.80;96.00
30308;DHT22;17114;52.314;8.910;2023-04-21T11:37:20;21.60;95.80
30308;DHT22;17114;52.314;8.910;2023-04-21T11:39:47;21.80;95.40
30308;DHT22;17114;52.314;8.910;2023-04-21T11:42:20;22.00;95.50
30308;DHT22;17114;52.314;8.910;2023-04-21T11:44:53;22.30;95.00
30308;DHT22;17114;52.314;8.910;2023-04-21T11:47:23;22.20;93.70
30308;DHT22;17114;52.314;8.910;2023-04-21T11:49:59;22.30;92.40
30308;DHT22;17114;52.314;8.910;2023-04-21T11:52:30;22.10;90.20
30308;DHT22;17114;52.314;8.910;2023-04-21T11:55:11;22.10;90.10
30308;DHT22;17114;52.314;8.910;2023-04-21T11:57:41;21.90;89.10
30308;DHT22;17114;52.314;8.910;2023-04-21T12:00:09;21.90;85.80
30308;DHT22;17114;52.314;8.910;2023-04-21T12:02:42;21.80;85.00
30308;DHT22;17114;52.314;8.910;2023-04-21T12:05:11;21.50;80.70
30308;DHT22;17114;52.314;8.910;2023-04-21T12:07:45;21.40;82.00
30308;DHT22;17114;52.314;8.910;2023-04-21T12:10:19;21.50;81.70
30308;DHT22;17114;52.314;8.910;2023-04-21T12:12:47;21.70;82.00
30308;DHT22;17114;52.314;8.910;2023-04-21T12:15:19;21.80;81.40
30308;DHT22;17114;52.314;8.910;2023-04-21T12:17:52;21.90;81.50
30308;DHT22;17114;52.314;8.910;2023-04-21T12:20:23;21.70;80.20
30308;DHT22;17114;52.314;8.910;2023-04-21T12:22:50;21.60;82.30
30308;DHT22;17114;52.314;8.910;2023-04-21T12:25:19;21.60;81.80
30308;DHT22;17114;52.314;8.910;2023-04-21T12:27:57;21.60;83.50
30308;DHT22;17114;52.314;8.910;2023-04-21T12:30:24;21.70;81.50
30308;DHT22;17114;52.314;8.910;2023-04-21T12:32:51;21.70;82.80
30308;DHT22;17114;52.314;8.910;2023-04-21T12:35:21;21.60;81.70
30308;DHT22;17114;52.314;8.910;2023-04-21T12:37:48;21.40;82.30
30308;DHT22;17114;52.314;8.910;2023-04-21T12:40:16;21.40;84.20
30308;DHT22;17114;52.314;8.910;2023-04-21T12:42:43;21.60;83.30
30308;DHT22;17114;52.314;8.910;2023-04-21T12:45:11;21.40;83.30
30308;DHT22;17114;52.314;8.910;2023-04-21T12:47:39;21.40;83.90
30308;DHT22;17114;52.314;8.910;2023-04-21T12:50:10;21.20;84.70
30308;DHT22;17114;52.314;8.910;2023-04-21T12:52:38;21.20;86.80
30308;DHT22;17114;52.314;8.910;2023-04-21T12:55:05;21.40;84.90
30308;DHT22;17114;52.314;8.910;2023-04-21T12:57:32;21.40;86.10
30308;DHT22;17114;52.314;8.910;2023-04-21T12:59:59;21.60;87.00
30308;DHT22;17114;52.314;8.910;2023-04-21T13:02:27;21.70;85.60
30308;DHT22;17114;52.314;8.910;2023-04-21T13:04:54;21.40;84.70
30308;DHT22;17114;52.314;8.910;2023-04-21T13:07:21;21.20;85.90
30308;DHT22;17114;52.314;8.910;2023-04-21T13:09:52;21.00;85.00
30308;DHT22;17114;52.314;8.910;2023-04-21T13:12:20;21.00;85.40
30308;DHT22;17114;52.314;8.910;2023-04-21T13:14:47;21.10;84.90
30308;DHT22;17114;52.314;8.910;2023-04-21T13:17:14;21.00;86.20
30308;DHT22;17114;52.314;8.910;2023-04-21T13:19:42;21.00;85.70
30308;DHT22;17114;52.314;8.910;2023-04-21T13:22:09;21.00;86.50
30308;DHT22;17114;52.314;8.910;2023-04-21T13:24:37;21.10;86.20
30308;DHT22;17114;52.314;8.910;2023-04-21T13:27:04;21.20;86.50
30308;DHT22;17114;52.314;8.910;2023-04-21T13:29:31;21.40;89.80
30308;DHT22;17114;52.314;8.910;2023-04-21T13:32:02;21.50;87.40
30308;DHT22;17114;52.314;8.910;2023-04-21T13:34:30;21.40;85.20
30308;DHT22;17114;52.314;8.910;2023-04-21T13:36:58;21.20;85.90
30308;DHT22;17114;52.314;8.910;2023-04-21T13:39:26;21.00;84.50
30308;DHT22;17114;52.314;8.910;2023-04-21T13:41:53;20.90;86.30
30308;DHT22;17114;52.314;8.910;2023-04-21T13:44:20;20.90;84.30
30308;DHT22;17114;52.314;8.910;2023-04-21T13:46:48;20.80;85.50
30308;DHT22;17114;52.314;8.910;2023-04-21T13:49:18;20.70;86.40
30308;DHT22;17114;52.314;8.910;2023-04-21T13:51:45;20.60;85.70
30308;DHT22;17114;52.314;8.910;2023-04-21T13:54:12;20.50;85.50
30308;DHT22;17114;52.314;8.910;2023-04-21T13:56:39;20.50;87.10
30308;DHT22;17114;52.314;8.910;2023-04-21T13:59:06;20.40;85.20
30308;DHT22;17114;52.314;8.910;2023-04-21T14:01:33;20.30;85.40
30308;DHT22;17114;52.314;8.910;2023-04-21T14:04:01;20.30;87.20
30308;DHT22;17114;52.314;8.910;2023-04-21T14:06:29;20.40;87.90
30308;DHT22;17114;52.314;8.910;2023-04-21T14:08:56;20.50;87.70
30308;DHT22;17114;52.314;8.910;2023-04-21T14:11:24;20.60;87.70
30308;DHT22;17114;52.314;8.910;2023-04-21T14:13:51;20.60;86.90
30308;DHT22;17114;52.314;8.910;2023-04-21T14:16:25;20.60;87.90
30308;DHT22;17114;52.314;8.910;2023-04-21T14:18:52;20.70;88.50
30308;DHT22;17114;52.314;8.910;2023-04-21T14:21:19;20.60;88.70
30308;DHT22;17114;52.314;8.910;2023-04-21T14:23:46;20.60;86.70
30308;DHT22;17114;52.314;8.910;2023-04-21T14:26:13;20.60;89.70
30308;DHT22;17114;52.314;8.910;2023-04-21T14:28:41;20.70;89.10
30308;DHT22;17114;52.314;8.910;2023-04-21T14:31:08;20.60;85.90
30308;DHT22;17114;52.314;8.910;2023-04-21T14:33:35;20.40;86.30
30308;DHT22;17114;52.314;8.910;2023-04-21T14:36:02;20.30;86.50
30308;DHT22;17114;52.314;8.910;2023-04-21T14:38:29;20.20;87.30
30308;DHT22;17114;52.314;8.910;2023-04-21T14:40:56;20.20;89.00
30308;DHT22;17114;52.314;8.910;2023-04-21T14:43:23;20.20;90.10
30308;DHT22;17114;52.314;8.910;2023-04-21T14:45:51;20.30;90.10
30308;DHT22;17114;52.314;8.910;2023-04-21T14:48:18;20.30;89.70
30308;DHT22;17114;52.314;8.910;2023-04-21T14:50:45;20.30;88.60
30308;DHT22;17114;52.314;8.910;2023-04-21T14:53:12;20.30;89.00
30308;DHT22;17114;52.314;8.910;2023-04-21T14:55:39;20.30;88.20
30308;DHT22;17114;52.314;8.910;2023-04-21T14:58:06;20.30;89.80
30308;DHT22;17114;52.314;8.910;2023-04-21T15:00:33;20.30;88.50
30308;DHT22;17114;52.314;8.910;2023-04-21T15:03:02;20.20;89.20
30308;DHT22;17114;52.314;8.910;2023-04-21T15:05:29;20.20;87.80
30308;DHT22;17114;52.314;8.910;2023-04-21T15:07:56;20.10;88.50
30308;DHT22;17114;52.314;8.910;2023-04-21T15:10:23;20.10;89.20
30308;DHT22;17114;52.314;8.910;2023-04-21T15:12:50;20.10;89.60
30308;DHT22;17114;52.314;8.910;2023-04-21T15:15:17;20.10;88.60
30308;DHT22;17114;52.314;8.910;2023-04-21T15:17:44;20.10;89.10
30308;DHT22;17114;52.314;8.910;2023-04-21T15:20:11;20.20;88.80
30308;DHT22;17114;52.314;8.910;2023-04-21T15:22:39;20.10;89.40
30308;DHT22;17114;52.314;8.910;2023-04-21T15:25:07;20.10;89.50
30308;DHT22;17114;52.314;8.910;2023-04-21T15:27:34;20.00;89.40
30308;DHT22;17114;52.314;8.910;2023-04-21T15:30:03;20.00;89.70
30308;DHT22;17114;52.314;8.910;2023-04-21T15:32:30;19.90;90.70
30308;DHT22;17114;52.314;8.910;2023-04-21T15:34:57;19.90;90.00
30308;DHT22;17114;52.314;8.910;2023-04-21T15:37:24;19.80;90.10
30308;DHT22;17114;52.314;8.910;2023-04-21T15:39:51;19.90;90.50
30308;DHT22;17114;52.314;8.910;2023-04-21T15:42:19;19.90;89.10
30308;DHT22;17114;52.314;8.910;2023-04-21T15:44:46;19.90;89.80
30308;DHT22;17114;52.314;8.910;2023-04-21T15:47:13;19.90;90.30
30308;DHT22;17114;52.314;8.910;2023-04-21T15:49:42;19.90;91.00
30308;DHT22;17114;52.314;8.910;2023-04-21T15:52:09;19.90;91.40
30308;DHT22;17114;52.314;8.910;2023-04-21T15:54:36;19.90;91.00
30308;DHT22;17114;52.314;8.910;2023-04-21T15:57:04;19.90;91.00